sensor_id;sensor_type;location;lat;lon;timestamp;pressure;altitude;pressure_sealevel;temperature;humidity
51530;BME280;37613;51.788;21.582;2023-03-04T00:00:11;99821.04;;;-1.15;95.05
51530;BME280;37613;51.788;21.582;2023-03-04T00:04:33;99814.38;;;-1.13;95.08
51530;BME280;37613;51.788;21.582;2023-03-04T00:08:35;99810.74;;;-1.10;95.11
51530;BME280;37613;51.788;21.582;2023-03-04T00:12:39;99810.30;;;-1.08;95.06
51530;BME280;37613;51.788;21.582;2023-03-04T00:16:41;99800.08;;;-1.07;94.92
51530;BME280;37613;51.788;21.582;2023-03-04T00:20:43;99797.66;;;-1.05;94.92
51530;BME280;37613;51.788;21.582;2023-03-04T00:24:45;99791.42;;;-1.04;94.81
51530;BME280;37613;51.788;21.582;2023-03-04T00:28:47;99784.96;;;-1.03;94.86
51530;BME280;37613;51.788;21.582;2023-03-04T00:32:49;99780.41;;;-1.02;94.83
51530;BME280;37613;51.788;21.582;2023-03-04T00:36:51;99770.70;;;-1.00;94.72
51530;BME280;37613;51.788;21.582;2023-03-04T00:40:53;99761.98;;;-0.99;94.57
51530;BME280;37613;51.788;21.582;2023-03-04T00:44:55;99753.64;;;-0.99;94.53
51530;BME280;37613;51.788;21.582;2023-03-04T00:49:00;99753.51;;;-0.98;94.60
51530;BME280;37613;51.788;21.582;2023-03-04T00:53:03;99749.79;;;-0.98;94.50
51530;BME280;37613;51.788;21.582;2023-03-04T00:57:05;99748.25;;;-0.97;94.28
51530;BME280;37613;51.788;21.582;2023-03-04T01:01:07;99745.00;;;-0.97;94.18
51530;BME280;37613;51.788;21.582;2023-03-04T01:05:10;99744.61;;;-0.97;94.11
51530;BME280;37613;51.788;21.582;2023-03-04T01:09:12;99741.96;;;-0.97;93.89
51530;BME280;37613;51.788;21.582;2023-03-04T01:13:14;99742.83;;;-0.97;93.81
51530;BME280;37613;51.788;21.582;2023-03-04T01:17:19;99743.37;;;-0.97;93.86
51530;BME280;37613;51.788;21.582;2023-03-04T01:21:21;99735.02;;;-0.96;93.84
51530;BME280;37613;51.788;21.582;2023-03-04T01:25:24;99725.54;;;-0.97;93.82
51530;BME280;37613;51.788;21.582;2023-03-04T01:29:26;99718.92;;;-0.97;93.82
51530;BME280;37613;51.788;21.582;2023-03-04T01:33:31;99705.16;;;-0.98;93.73
51530;BME280;37613;51.788;21.582;2023-03-04T01:37:33;99697.85;;;-0.98;93.70
51530;BME280;37613;51.788;21.582;2023-03-04T01:41:35;99700.48;;;-0.99;93.55
51530;BME280;37613;51.788;21.582;2023-03-04T01:45:37;99691.73;;;-0.98;93.74
51530;BME280;37613;51.788;21.582;2023-03-04T01:49:40;99689.27;;;-0.97;93.83
51530;BME280;37613;51.788;21.582;2023-03-04T01:53:43;99681.55;;;-0.97;93.78
51530;BME280;37613;51.788;21.582;2023-03-04T01:57:50;99675.30;;;-0.96;93.79
51530;BME280;37613;51.788;21.582;2023-03-04T02:01:58;99670.44;;;-0.95;93.63
51530;BME280;37613;51.788;21.582;2023-03-04T02:06:01;99667.30;;;-0.94;93.73
51530;BME280;37613;51.788;21.582;2023-03-04T02:10:04;99668.52;;;-0.93;93.79
51530;BME280;37613;51.788;21.582;2023-03-04T02:14:07;99655.82;;;-0.92;93.80
51530;BME280;37613;51.788;21.582;2023-03-04T02:18:20;99644.15;;;-0.91;93.83
51530;BME280;37613;51.788;21.582;2023-03-04T02:22:23;99617.33;;;-0.90;93.85
51530;BME280;37613;51.788;21.582;2023-03-04T02:26:27;99584.80;;;-0.90;93.89
51530;BME280;37613;51.788;21.582;2023-03-04T02:30:30;99576.86;;;-0.91;93.93
51530;BME280;37613;51.788;21.582;2023-03-04T02:34:33;99564.59;;;-0.91;94.00
51530;BME280;37613;51.788;21.582;2023-03-04T02:38:36;99569.62;;;-0.89;93.99
51530;BME280;37613;51.788;21.582;2023-03-04T02:42:42;99561.56;;;-0.89;94.08
51530;BME280;37613;51.788;21.582;2023-03-04T02:46:45;99553.36;;;-0.88;94.08
51530;BME280;37613;51.788;21.582;2023-03-04T02:50:50;99549.23;;;-0.86;94.18
51530;BME280;37613;51.788;21.582;2023-03-04T02:54:53;99546.80;;;-0.85;94.23
51530;BME280;37613;51.788;21.582;2023-03-04T02:58:55;99540.52;;;-0.83;94.21
51530;BME280;37613;51.788;21.582;2023-03-04T03:02:57;99534.58;;;-0.81;94.19
51530;BME280;37613;51.788;21.582;2023-03-04T03:06:59;99519.95;;;-0.80;94.19
51530;BME280;37613;51.788;21.582;2023-03-04T03:11:03;99523.42;;;-0.78;94.12
51530;BME280;37613;51.788;21.582;2023-03-04T03:15:05;99524.95;;;-0.77;94.18
51530;BME280;37613;51.788;21.582;2023-03-04T03:19:08;99527.80;;;-0.75;94.17
51530;BME280;37613;51.788;21.582;2023-03-04T03:23:10;99531.09;;;-0.74;94.12
51530;BME280;37613;51.788;21.582;2023-03-04T03:27:12;99534.05;;;-0.74;94.14
51530;BME280;37613;51.788;21.582;2023-03-04T03:31:15;99536.34;;;-0.73;94.15
51530;BME280;37613;51.788;21.582;2023-03-04T03:35:17;99535.98;;;-0.72;94.19
51530;BME280;37613;51.788;21.582;2023-03-04T03:39:19;99534.62;;;-0.71;94.19
51530;BME280;37613;51.788;21.582;2023-03-04T03:43:22;99532.86;;;-0.70;94.28
51530;BME280;37613;51.788;21.582;2023-03-04T03:47:24;99528.77;;;-0.69;94.38
51530;BME280;37613;51.788;21.582;2023-03-04T03:51:26;99525.70;;;-0.69;94.47
51530;BME280;37613;51.788;21.582;2023-03-04T03:55:28;99518.61;;;-0.72;94.65
51530;BME280;37613;51.788;21.582;2023-03-04T03:59:30;99524.61;;;-0.66;94.75
51530;BME280;37613;51.788;21.582;2023-03-04T04:03:32;99524.02;;;-0.65;94.95
51530;BME280;37613;51.788;21.582;2023-03-04T04:07:35;99515.14;;;-0.64;95.00
51530;BME280;37613;51.788;21.582;2023-03-04T04:11:40;99513.76;;;-0.61;94.99
51530;BME280;37613;51.788;21.582;2023-03-04T04:15:42;99513.51;;;-0.60;94.87
51530;BME280;37613;51.788;21.582;2023-03-04T04:19:43;99508.36;;;-0.58;94.97
51530;BME280;37613;51.788;21.582;2023-03-04T04:23:45;99506.95;;;-0.55;94.96
51530;BME280;37613;51.788;21.582;2023-03-04T04:27:52;99506.50;;;-0.53;94.96
51530;BME280;37613;51.788;21.582;2023-03-04T04:31:58;99508.13;;;-0.51;95.08
51530;BME280;37613;51.788;21.582;2023-03-04T04:36:01;99505.78;;;-0.48;95.04
51530;BME280;37613;51.788;21.582;2023-03-04T04:40:04;99512.29;;;-0.47;95.07
51530;BME280;37613;51.788;21.582;2023-03-04T04:44:10;99509.48;;;-0.45;95.17
51530;BME280;37613;51.788;21.582;2023-03-04T04:48:13;99505.94;;;-0.44;95.17
51530;BME280;37613;51.788;21.582;2023-03-04T04:52:15;99503.83;;;-0.42;95.13
51530;BME280;37613;51.788;21.582;2023-03-04T04:56:20;99503.09;;;-0.39;95.11
51530;BME280;37613;51.788;21.582;2023-03-04T05:00:23;99495.34;;;-0.36;95.11
51530;BME280;37613;51.788;21.582;2023-03-04T05:04:25;99497.84;;;-0.33;95.07
51530;BME280;37613;51.788;21.582;2023-03-04T05:08:27;99495.44;;;-0.31;95.10
51530;BME280;37613;51.788;21.582;2023-03-04T05:12:32;99496.20;;;-0.28;95.11
51530;BME280;37613;51.788;21.582;2023-03-04T05:16:34;99490.51;;;-0.26;95.08
51530;BME280;37613;51.788;21.582;2023-03-04T05:20:36;99485.80;;;-0.23;95.00
51530;BME280;37613;51.788;21.582;2023-03-04T05:24:38;99487.20;;;-0.20;94.97
51530;BME280;37613;51.788;21.582;2023-03-04T05:28:41;99482.90;;;-0.16;94.93
51530;BME280;37613;51.788;21.582;2023-03-04T05:38:02;99481.51;;;-0.11;94.91
51530;BME280;37613;51.788;21.582;2023-03-04T05:42:04;99482.44;;;-0.09;94.87
51530;BME280;37613;51.788;21.582;2023-03-04T05:46:06;99481.73;;;-0.06;94.89
51530;BME280;37613;51.788;21.582;2023-03-04T05:50:12;99479.33;;;-0.04;94.87
51530;BME280;37613;51.788;21.582;2023-03-04T05:54:14;99476.46;;;-0.00;94.85
51530;BME280;37613;51.788;21.582;2023-03-04T05:58:19;99475.99;;;0.02;94.89
51530;BME280;37613;51.788;21.582;2023-03-04T06:02:22;99469.20;;;0.04;94.81
51530;BME280;37613;51.788;21.582;2023-03-04T06:06:23;99467.86;;;0.06;94.78
51530;BME280;37613;51.788;21.582;2023-03-04T06:10:25;99465.66;;;0.07;94.75
51530;BME280;37613;51.788;21.582;2023-03-04T06:14:28;99469.62;;;0.09;94.81
51530;BME280;37613;51.788;21.582;2023-03-04T06:18:30;99463.51;;;0.10;94.87
51530;BME280;37613;51.788;21.582;2023-03-04T06:22:32;99459.80;;;0.12;94.81
51530;BME280;37613;51.788;21.582;2023-03-04T06:26:35;99456.83;;;0.14;94.79
51530;BME280;37613;51.788;21.582;2023-03-04T06:30:37;99451.02;;;0.14;94.91
51530;BME280;37613;51.788;21.582;2023-03-04T06:34:42;99443.04;;;0.15;94.96
51530;BME280;37613;51.788;21.582;2023-03-04T06:38:44;99436.59;;;0.15;95.05
51530;BME280;37613;51.788;21.582;2023-03-04T06:42:46;99429.40;;;0.16;95.04
51530;BME280;37613;51.788;21.582;2023-03-04T06:46:48;99430.83;;;0.17;95.01
51530;BME280;37613;51.788;21.582;2023-03-04T06:50:50;99432.80;;;0.18;95.03
51530;BME280;37613;51.788;21.582;2023-03-04T06:54:52;99433.42;;;0.18;95.04
51530;BME280;37613;51.788;21.582;2023-03-04T06:58:55;99438.79;;;0.19;95.07
51530;BME280;37613;51.788;21.582;2023-03-04T07:03:00;99441.61;;;0.19;94.99
51530;BME280;37613;51.788;21.582;2023-03-04T07:07:02;99444.36;;;0.20;94.94
51530;BME280;37613;51.788;21.582;2023-03-04T07:11:04;99442.61;;;0.22;94.98
51530;BME280;37613;51.788;21.582;2023-03-04T07:15:07;99444.58;;;0.23;94.97
51530;BME280;37613;51.788;21.582;2023-03-04T07:19:09;99447.23;;;0.23;94.92
51530;BME280;37613;51.788;21.582;2023-03-04T07:23:14;99445.79;;;0.24;94.91
51530;BME280;37613;51.788;21.582;2023-03-04T07:27:16;99439.29;;;0.24;94.93
51530;BME280;37613;51.788;21.582;2023-03-04T07:31:21;99442.09;;;0.25;94.98
51530;BME280;37613;51.788;21.582;2023-03-04T07:35:24;99439.63;;;0.26;95.08
51530;BME280;37613;51.788;21.582;2023-03-04T07:39:26;99437.05;;;0.25;95.19
51530;BME280;37613;51.788;21.582;2023-03-04T07:43:31;99436.38;;;0.26;95.15
51530;BME280;37613;51.788;21.582;2023-03-04T07:47:33;99436.31;;;0.27;95.36
51530;BME280;37613;51.788;21.582;2023-03-04T07:51:35;99433.38;;;0.27;95.49
51530;BME280;37613;51.788;21.582;2023-03-04T07:55:38;99426.54;;;0.28;95.56
51530;BME280;37613;51.788;21.582;2023-03-04T07:59:40;99420.89;;;0.29;95.62
51530;BME280;37613;51.788;21.582;2023-03-04T08:03:43;99417.91;;;0.31;95.52
51530;BME280;37613;51.788;21.582;2023-03-04T08:07:45;99419.77;;;0.33;95.64
51530;BME280;37613;51.788;21.582;2023-03-04T08:11:50;99413.26;;;0.33;95.66
51530;BME280;37613;51.788;21.582;2023-03-04T08:15:54;99409.24;;;0.35;95.75
51530;BME280;37613;51.788;21.582;2023-03-04T08:19:57;99410.02;;;0.38;95.55
51530;BME280;37613;51.788;21.582;2023-03-04T08:24:03;99410.06;;;0.41;95.42
51530;BME280;37613;51.788;21.582;2023-03-04T08:28:14;99409.15;;;0.45;95.19
51530;BME280;37613;51.788;21.582;2023-03-04T08:32:16;99408.33;;;0.49;94.99
51530;BME280;37613;51.788;21.582;2023-03-04T08:36:19;99404.49;;;0.51;94.74
51530;BME280;37613;51.788;21.582;2023-03-04T08:40:21;99404.42;;;0.54;94.43
51530;BME280;37613;51.788;21.582;2023-03-04T08:44:25;99407.67;;;0.57;94.27
51530;BME280;37613;51.788;21.582;2023-03-04T08:48:27;99402.05;;;0.59;94.21
51530;BME280;37613;51.788;21.582;2023-03-04T08:52:29;99399.77;;;0.61;94.01
51530;BME280;37613;51.788;21.582;2023-03-04T08:56:31;99403.69;;;0.65;93.95
51530;BME280;37613;51.788;21.582;2023-03-04T09:00:36;99401.48;;;0.67;94.07
51530;BME280;37613;51.788;21.582;2023-03-04T09:04:39;99402.98;;;0.68;93.66
51530;BME280;37613;51.788;21.582;2023-03-04T09:08:41;99403.23;;;0.68;93.51
51530;BME280;37613;51.788;21.582;2023-03-04T09:12:43;99405.85;;;0.67;93.15
51530;BME280;37613;51.788;21.582;2023-03-04T09:16:46;99401.89;;;0.68;93.28
51530;BME280;37613;51.788;21.582;2023-03-04T09:20:48;99399.34;;;0.68;93.03
51530;BME280;37613;51.788;21.582;2023-03-04T09:24:50;99397.13;;;0.70;93.25
51530;BME280;37613;51.788;21.582;2023-03-04T09:28:58;99396.25;;;0.72;93.10
51530;BME280;37613;51.788;21.582;2023-03-04T09:33:00;99392.73;;;0.74;93.00
51530;BME280;37613;51.788;21.582;2023-03-04T09:37:03;99389.32;;;0.77;93.15
51530;BME280;37613;51.788;21.582;2023-03-04T09:41:08;99384.23;;;0.79;92.94
51530;BME280;37613;51.788;21.582;2023-03-04T09:45:18;99376.95;;;0.81;92.93
51530;BME280;37613;51.788;21.582;2023-03-04T09:49:21;99368.60;;;0.83;92.95
51530;BME280;37613;51.788;21.582;2023-03-04T09:53:33;99366.77;;;0.87;92.93
51530;BME280;37613;51.788;21.582;2023-03-04T09:57:56;99363.41;;;0.93;93.04
51530;BME280;37613;51.788;21.582;2023-03-04T10:02:15;99352.95;;;0.98;93.08
51530;BME280;37613;51.788;21.582;2023-03-04T10:06:21;99345.25;;;0.99;92.68
51530;BME280;37613;51.788;21.582;2023-03-04T10:10:36;99339.52;;;0.99;92.73
51530;BME280;37613;51.788;21.582;2023-03-04T10:14:53;99333.61;;;1.03;92.80
51530;BME280;37613;51.788;21.582;2023-03-04T10:23:21;99322.48;;;1.07;92.37
51530;BME280;37613;51.788;21.582;2023-03-04T10:27:23;99323.09;;;1.09;92.47
51530;BME280;37613;51.788;21.582;2023-03-04T10:31:35;99323.22;;;1.10;92.24
51530;BME280;37613;51.788;21.582;2023-03-04T10:35:37;99315.70;;;1.09;91.89
51530;BME280;37613;51.788;21.582;2023-03-04T10:39:41;99306.27;;;1.08;91.92
51530;BME280;37613;51.788;21.582;2023-03-04T10:43:49;99302.01;;;1.09;91.98
51530;BME280;37613;51.788;21.582;2023-03-04T10:47:53;99295.33;;;1.09;92.05
51530;BME280;37613;51.788;21.582;2023-03-04T10:52:11;99293.11;;;1.12;91.97
51530;BME280;37613;51.788;21.582;2023-03-04T10:56:38;99292.67;;;1.16;92.19
51530;BME280;37613;51.788;21.582;2023-03-04T11:00:40;99289.62;;;1.19;91.90
51530;BME280;37613;51.788;21.582;2023-03-04T11:04:49;99282.77;;;1.19;91.38
51530;BME280;37613;51.788;21.582;2023-03-04T11:08:58;99281.48;;;1.21;91.52
51530;BME280;37613;51.788;21.582;2023-03-04T11:17:21;99269.09;;;1.24;91.51
51530;BME280;37613;51.788;21.582;2023-03-04T11:21:27;99263.94;;;1.26;91.34
51530;BME280;37613;51.788;21.582;2023-03-04T11:25:37;99267.20;;;1.30;91.27
51530;BME280;37613;51.788;21.582;2023-03-04T11:34:36;99256.61;;;1.37;91.28
51530;BME280;37613;51.788;21.582;2023-03-04T11:38:48;99247.49;;;1.40;91.33
51530;BME280;37613;51.788;21.582;2023-03-04T11:43:13;99246.25;;;1.44;91.30
51530;BME280;37613;51.788;21.582;2023-03-04T11:55:35;99231.05;;;1.51;91.13
51530;BME280;37613;51.788;21.582;2023-03-04T12:04:40;99225.73;;;1.62;91.21
51530;BME280;37613;51.788;21.582;2023-03-04T12:18:11;99212.55;;;1.73;91.09
51530;BME280;37613;51.788;21.582;2023-03-04T12:22:43;99215.05;;;1.77;91.37
51530;BME280;37613;51.788;21.582;2023-03-04T12:27:03;99216.84;;;1.81;91.61
51530;BME280;37613;51.788;21.582;2023-03-04T12:44:17;99206.13;;;1.87;91.89
51530;BME280;37613;51.788;21.582;2023-03-04T12:48:41;99207.17;;;1.85;92.44
51530;BME280;37613;51.788;21.582;2023-03-04T12:57:33;99203.22;;;1.62;94.81
51530;BME280;37613;51.788;21.582;2023-03-04T13:01:41;99196.12;;;1.53;94.97
51530;BME280;37613;51.788;21.582;2023-03-04T13:05:55;99186.75;;;1.48;95.69
51530;BME280;37613;51.788;21.582;2023-03-04T13:10:15;99184.61;;;1.50;96.29
51530;BME280;37613;51.788;21.582;2023-03-04T13:14:21;99178.14;;;1.54;96.43
51530;BME280;37613;51.788;21.582;2023-03-04T13:18:35;99173.02;;;1.58;96.38
51530;BME280;37613;51.788;21.582;2023-03-04T13:26:40;99167.95;;;1.71;96.49
51530;BME280;37613;51.788;21.582;2023-03-04T13:34:56;99154.27;;;1.81;96.52
51530;BME280;37613;51.788;21.582;2023-03-04T13:39:24;99156.61;;;1.86;96.57
51530;BME280;37613;51.788;21.582;2023-03-04T13:43:39;99154.32;;;1.92;96.79
51530;BME280;37613;51.788;21.582;2023-03-04T13:47:44;99153.36;;;2.00;97.13
51530;BME280;37613;51.788;21.582;2023-03-04T13:51:47;99157.38;;;2.03;97.52
51530;BME280;37613;51.788;21.582;2023-03-04T13:56:09;99164.83;;;1.96;97.42
51530;BME280;37613;51.788;21.582;2023-03-04T14:00:14;99166.21;;;1.78;98.07
51530;BME280;37613;51.788;21.582;2023-03-04T14:04:17;99173.34;;;1.55;98.82
51530;BME280;37613;51.788;21.582;2023-03-04T14:08:19;99182.77;;;1.36;98.26
51530;BME280;37613;51.788;21.582;2023-03-04T14:12:22;99184.32;;;1.24;98.24
51530;BME280;37613;51.788;21.582;2023-03-04T14:16:27;99175.48;;;1.18;98.40
51530;BME280;37613;51.788;21.582;2023-03-04T14:20:38;99171.39;;;1.17;98.11
51530;BME280;37613;51.788;21.582;2023-03-04T14:29:23;99170.19;;;1.23;99.33
51530;BME280;37613;51.788;21.582;2023-03-04T14:33:28;99166.38;;;1.26;99.86
51530;BME280;37613;51.788;21.582;2023-03-04T14:37:43;99164.24;;;1.29;100.00
51530;BME280;37613;51.788;21.582;2023-03-04T14:41:50;99156.94;;;1.30;100.00
51530;BME280;37613;51.788;21.582;2023-03-04T14:45:57;99154.41;;;1.31;100.00
51530;BME280;37613;51.788;21.582;2023-03-04T14:50:04;99148.98;;;1.32;100.00
51530;BME280;37613;51.788;21.582;2023-03-04T14:54:43;99154.52;;;1.32;99.94
51530;BME280;37613;51.788;21.582;2023-03-04T14:58:56;99147.95;;;1.31;100.00
51530;BME280;37613;51.788;21.582;2023-03-04T15:07:04;99156.50;;;1.34;100.00
51530;BME280;37613;51.788;21.582;2023-03-04T15:11:07;99161.64;;;1.34;100.00
51530;BME280;37613;51.788;21.582;2023-03-04T15:19:42;99178.91;;;1.26;99.87
51530;BME280;37613;51.788;21.582;2023-03-04T15:23:46;99178.08;;;1.20;99.88
51530;BME280;37613;51.788;21.582;2023-03-04T15:27:49;99185.52;;;1.15;100.00
51530;BME280;37613;51.788;21.582;2023-03-04T15:31:53;99183.70;;;1.09;99.99
51530;BME280;37613;51.788;21.582;2023-03-04T15:35:58;99190.06;;;1.05;99.94
51530;BME280;37613;51.788;21.582;2023-03-04T15:40:06;99189.75;;;1.01;99.89
51530;BME280;37613;51.788;21.582;2023-03-04T15:44:14;99192.38;;;0.97;99.74
51530;BME280;37613;51.788;21.582;2023-03-04T15:48:18;99197.48;;;0.92;99.80
51530;BME280;37613;51.788;21.582;2023-03-04T15:52:22;99195.30;;;0.85;99.61
51530;BME280;37613;51.788;21.582;2023-03-04T15:56:29;99196.52;;;0.77;99.41
51530;BME280;37613;51.788;21.582;2023-03-04T16:00:31;99202.70;;;0.65;99.70
51530;BME280;37613;51.788;21.582;2023-03-04T16:04:36;99208.70;;;0.56;99.49
51530;BME280;37613;51.788;21.582;2023-03-04T16:08:41;99214.28;;;0.49;99.29
51530;BME280;37613;51.788;21.582;2023-03-04T16:12:46;99222.39;;;0.42;99.35
51530;BME280;37613;51.788;21.582;2023-03-04T16:16:49;99234.79;;;0.38;99.58
51530;BME280;37613;51.788;21.582;2023-03-04T16:20:54;99240.41;;;0.36;99.75
51530;BME280;37613;51.788;21.582;2023-03-04T16:24:56;99257.96;;;0.36;100.00
51530;BME280;37613;51.788;21.582;2023-03-04T16:28:58;99274.33;;;0.37;100.00
51530;BME280;37613;51.788;21.582;2023-03-04T16:33:01;99280.38;;;0.39;99.98
51530;BME280;37613;51.788;21.582;2023-03-04T16:37:12;99285.23;;;0.40;99.89
51530;BME280;37613;51.788;21.582;2023-03-04T16:41:16;99310.65;;;0.40;98.73
51530;BME280;37613;51.788;21.582;2023-03-04T16:45:25;99319.91;;;0.32;95.13
51530;BME280;37613;51.788;21.582;2023-03-04T16:49:28;99335.29;;;0.20;93.31
51530;BME280;37613;51.788;21.582;2023-03-04T16:53:37;99344.89;;;0.07;89.27
51530;BME280;37613;51.788;21.582;2023-03-04T16:57:39;99354.10;;;0.00;91.79
51530;BME280;37613;51.788;21.582;2023-03-04T17:01:42;99361.70;;;-0.09;88.52
51530;BME280;37613;51.788;21.582;2023-03-04T17:05:44;99368.33;;;-0.15;87.28
51530;BME280;37613;51.788;21.582;2023-03-04T17:09:48;99379.07;;;-0.23;83.69
51530;BME280;37613;51.788;21.582;2023-03-04T17:13:51;99382.98;;;-0.27;81.93
51530;BME280;37613;51.788;21.582;2023-03-04T17:17:56;99400.55;;;-0.30;81.36
51530;BME280;37613;51.788;21.582;2023-03-04T17:22:00;99412.23;;;-0.34;76.64
51530;BME280;37613;51.788;21.582;2023-03-04T17:26:05;99413.04;;;-0.35;78.63
51530;BME280;37613;51.788;21.582;2023-03-04T17:30:09;99417.48;;;-0.32;83.49
51530;BME280;37613;51.788;21.582;2023-03-04T17:34:13;99424.25;;;-0.26;80.33
51530;BME280;37613;51.788;21.582;2023-03-04T17:38:16;99430.14;;;-0.34;75.72
51530;BME280;37613;51.788;21.582;2023-03-04T17:42:19;99433.77;;;-0.40;77.12
51530;BME280;37613;51.788;21.582;2023-03-04T17:46:25;99437.75;;;-0.47;76.59
51530;BME280;37613;51.788;21.582;2023-03-04T17:50:28;99440.95;;;-0.53;77.67
51530;BME280;37613;51.788;21.582;2023-03-04T17:54:34;99443.20;;;-0.61;77.45
51530;BME280;37613;51.788;21.582;2023-03-04T17:58:38;99458.80;;;-0.70;75.75
51530;BME280;37613;51.788;21.582;2023-03-04T18:02:41;99466.87;;;-0.75;76.64
51530;BME280;37613;51.788;21.582;2023-03-04T18:06:44;99474.64;;;-0.79;78.64
51530;BME280;37613;51.788;21.582;2023-03-04T18:10:48;99478.31;;;-0.84;78.07
51530;BME280;37613;51.788;21.582;2023-03-04T18:14:52;99472.09;;;-0.94;79.27
51530;BME280;37613;51.788;21.582;2023-03-04T18:18:57;99489.16;;;-0.91;78.35
51530;BME280;37613;51.788;21.582;2023-03-04T18:23:01;99496.56;;;-0.94;76.23
51530;BME280;37613;51.788;21.582;2023-03-04T18:27:04;99507.06;;;-0.98;75.27
51530;BME280;37613;51.788;21.582;2023-03-04T18:31:08;99508.42;;;-1.00;76.01
51530;BME280;37613;51.788;21.582;2023-03-04T18:35:14;99508.20;;;-1.01;76.81
51530;BME280;37613;51.788;21.582;2023-03-04T18:39:18;99517.17;;;-1.04;75.78
51530;BME280;37613;51.788;21.582;2023-03-04T18:43:28;99519.52;;;-1.08;71.49
51530;BME280;37613;51.788;21.582;2023-03-04T18:47:35;99522.65;;;-1.09;70.10
51530;BME280;37613;51.788;21.582;2023-03-04T18:51:39;99526.40;;;-1.11;72.24
51530;BME280;37613;51.788;21.582;2023-03-04T18:55:45;99531.29;;;-1.16;72.20
51530;BME280;37613;51.788;21.582;2023-03-04T18:59:58;99538.20;;;-1.22;70.37
51530;BME280;37613;51.788;21.582;2023-03-04T19:04:02;99541.06;;;-1.24;72.23
51530;BME280;37613;51.788;21.582;2023-03-04T19:08:07;99547.73;;;-1.28;68.25
51530;BME280;37613;51.788;21.582;2023-03-04T19:12:10;99556.77;;;-1.30;70.19
51530;BME280;37613;51.788;21.582;2023-03-04T19:16:13;99559.55;;;-1.33;71.43
51530;BME280;37613;51.788;21.582;2023-03-04T19:20:22;99561.78;;;-1.38;70.78
51530;BME280;37613;51.788;21.582;2023-03-04T19:24:25;99566.86;;;-1.44;68.99
51530;BME280;37613;51.788;21.582;2023-03-04T19:28:29;99571.91;;;-1.50;69.54
51530;BME280;37613;51.788;21.582;2023-03-04T19:32:34;99570.67;;;-1.56;68.99
51530;BME280;37613;51.788;21.582;2023-03-04T19:36:37;99572.35;;;-1.61;69.78
51530;BME280;37613;51.788;21.582;2023-03-04T19:40:41;99581.27;;;-1.64;70.59
51530;BME280;37613;51.788;21.582;2023-03-04T19:44:47;99585.29;;;-1.69;69.64
51530;BME280;37613;51.788;21.582;2023-03-04T19:48:50;99593.70;;;-1.74;68.24
51530;BME280;37613;51.788;21.582;2023-03-04T19:52:53;99595.97;;;-1.77;68.84
51530;BME280;37613;51.788;21.582;2023-03-04T19:56:57;99598.73;;;-1.82;69.56
51530;BME280;37613;51.788;21.582;2023-03-04T20:01:00;99600.16;;;-1.85;70.08
51530;BME280;37613;51.788;21.582;2023-03-04T20:05:04;99602.46;;;-1.89;69.91
51530;BME280;37613;51.788;21.582;2023-03-04T20:09:09;99603.92;;;-1.91;70.04
51530;BME280;37613;51.788;21.582;2023-03-04T20:13:15;99603.08;;;-1.93;69.30
51530;BME280;37613;51.788;21.582;2023-03-04T20:17:18;99605.59;;;-1.96;69.14
51530;BME280;37613;51.788;21.582;2023-03-04T20:21:21;99605.96;;;-1.99;69.77
51530;BME280;37613;51.788;21.582;2023-03-04T20:25:26;99606.84;;;-2.02;69.61
51530;BME280;37613;51.788;21.582;2023-03-04T20:29:31;99605.59;;;-2.08;69.16
51530;BME280;37613;51.788;21.582;2023-03-04T20:33:34;99611.17;;;-2.14;69.49
51530;BME280;37613;51.788;21.582;2023-03-04T20:37:37;99613.48;;;-2.19;69.72
51530;BME280;37613;51.788;21.582;2023-03-04T20:41:42;99612.52;;;-2.26;69.85
51530;BME280;37613;51.788;21.582;2023-03-04T20:45:45;99614.90;;;-2.32;69.64
51530;BME280;37613;51.788;21.582;2023-03-04T20:49:49;99614.40;;;-2.40;68.98
51530;BME280;37613;51.788;21.582;2023-03-04T20:53:53;99613.25;;;-2.47;68.82
51530;BME280;37613;51.788;21.582;2023-03-04T20:57:58;99612.44;;;-2.54;67.58
51530;BME280;37613;51.788;21.582;2023-03-04T21:02:00;99611.41;;;-2.58;68.03
51530;BME280;37613;51.788;21.582;2023-03-04T21:06:05;99612.55;;;-2.62;68.37
51530;BME280;37613;51.788;21.582;2023-03-04T21:10:09;99610.10;;;-2.67;68.66
51530;BME280;37613;51.788;21.582;2023-03-04T21:14:16;99610.69;;;-2.73;68.52
51530;BME280;37613;51.788;21.582;2023-03-04T21:18:24;99614.44;;;-2.81;68.52
51530;BME280;37613;51.788;21.582;2023-03-04T21:22:27;99612.83;;;-2.90;67.94
51530;BME280;37613;51.788;21.582;2023-03-04T21:26:29;99615.09;;;-2.98;68.02
51530;BME280;37613;51.788;21.582;2023-03-04T21:30:31;99624.80;;;-3.06;68.71
51530;BME280;37613;51.788;21.582;2023-03-04T21:34:43;99620.60;;;-3.14;68.56
51530;BME280;37613;51.788;21.582;2023-03-04T21:38:47;99623.66;;;-3.20;68.33
51530;BME280;37613;51.788;21.582;2023-03-04T21:42:50;99623.48;;;-3.25;68.08
51530;BME280;37613;51.788;21.582;2023-03-04T21:46:56;99624.83;;;-3.29;68.24
51530;BME280;37613;51.788;21.582;2023-03-04T21:51:07;99628.44;;;-3.34;68.56
51530;BME280;37613;51.788;21.582;2023-03-04T21:55:10;99629.14;;;-3.38;67.68
51530;BME280;37613;51.788;21.582;2023-03-04T21:59:13;99632.58;;;-3.41;67.57
51530;BME280;37613;51.788;21.582;2023-03-04T22:03:21;99630.77;;;-3.43;67.52
51530;BME280;37613;51.788;21.582;2023-03-04T22:07:25;99630.09;;;-3.45;67.97
51530;BME280;37613;51.788;21.582;2023-03-04T22:11:28;99630.63;;;-3.46;68.15
51530;BME280;37613;51.788;21.582;2023-03-04T22:15:31;99636.32;;;-3.50;67.23
51530;BME280;37613;51.788;21.582;2023-03-04T22:19:33;99636.77;;;-3.54;67.03
51530;BME280;37613;51.788;21.582;2023-03-04T22:23:37;99634.05;;;-3.57;67.61
51530;BME280;37613;51.788;21.582;2023-03-04T22:27:39;99630.58;;;-3.62;67.75
51530;BME280;37613;51.788;21.582;2023-03-04T22:31:43;99631.98;;;-3.68;67.98
51530;BME280;37613;51.788;21.582;2023-03-04T22:35:45;99634.29;;;-3.75;68.01
51530;BME280;37613;51.788;21.582;2023-03-04T22:39:47;99634.39;;;-3.81;68.32
51530;BME280;37613;51.788;21.582;2023-03-04T22:43:50;99636.58;;;-3.87;68.32
51530;BME280;37613;51.788;21.582;2023-03-04T22:47:53;99635.23;;;-3.93;68.53